Historyczne dane pomiarowe

Dodano dane terminowe – wersja testowa.

Dane z okresu 1951-2019

Wersja bazy: 1.34 [2019-03-16, lista zmian], aktualizacja planowana na 2019-04-15

Dane meteo z obszaru Polski uzyskane na podstawie danych udostępnionych przez Instytut Meteorologii i Gospodarki Wodnej – Państwowy Instytut Badawczy.

 

Wybierz Datę:    

       

TemperaturaWilgotnośćWiatrCiśnienieOpadyŚniegCzas trwania zjawisk
 Stacja t tx tn tng RH VA  wxwx mslp ppp RRR   cm mm wxwxwxwxwxwxwx
1983-08-14 13.3 18.8 7.0 5.0 67.8- 2.7 1.7---- 0.0------------
1983-08-13 13.6 22.3 10.4 11.0 84.0- 4.3 3.0---- 15.0------------
1983-08-12 18.2 24.3 12.2 9.9 67.8- 3.0 2.7---- 11.8------------
1983-08-11 20.8 26.5 12.5 10.9 68.8- 2.7 2.3---- 0.0------------
1983-08-10 20.2 27.0 13.0 11.6 66.8- 0.0 3.0---- 0.0------------
1983-08-09 19.9 26.5 13.5 13.8 72.5- 2.0 2.3---- 0.0------------
1983-08-08 19.8 24.9 15.5 16.0 70.8- 2.7 4.0---- 0.0------------
1983-08-07 17.3 22.8 13.5 10.9 83.0- 6.0 2.7---- 0.0------------
1983-08-06 16.4 21.4 9.8 7.7 72.3- 3.0 2.0---- 0.2------------
1983-08-05 14.0 17.2 11.0 11.9 79.5- 5.3 1.0---- 0.0------------
1983-08-04 15.1 16.5 13.5 14.0 84.5- 8.0 2.0---- 4.6------------
1983-08-03 16.2 19.3 14.0 14.0 88.5- 8.0 3.0---- 10.9------------
1983-08-02 20.0 25.5 15.0 15.5 63.3- 7.3 3.0---- 19.5------------
1983-08-01 21.0 29.2 12.0 6.7 50.3- 2.7 6.3---- 0.0------------
1983-07-31 18.3 24.8 10.7 9.9 59.5- 3.3 1.0---- 0.0------------
1983-07-30 16.7 20.2 14.6 14.5 69.8- 6.7 2.7---- 0.0------------
1983-07-29 18.7 24.3 12.8 9.8 63.3- 4.7 2.3---- 1.1------------
1983-07-28 21.8 26.5 17.4 15.8 62.0- 5.3 3.7---- 0.0------------
1983-07-27 20.7 30.3 9.0 7.4 61.3- 5.3 0.7---- 0.0------------
1983-07-26 19.6 26.5 12.0 10.9 59.3- 0.0 1.7---- 0.0------------
1983-07-25 17.4 22.3 10.5 7.2 65.0- 2.3 4.0---- 0.0------------
1983-07-24 17.9 21.5 14.2 9.7 71.0- 5.7 1.7---- 0.2------------
1983-07-23 16.9 19.8 12.5 9.9 70.8- 6.3 6.3---- 0.8------------
1983-07-22 14.9 20.7 9.6 8.1 60.5- 6.0 2.0---- 0.0------------
1983-07-21 14.1 18.8 7.7 7.3 59.3- 1.0 2.0---- 0.0------------
1983-07-20 13.2 19.0 9.5 8.6 73.0- 6.0 3.0---- 1.5------------
1983-07-19 19.9 23.6 17.0 11.0 68.0- 5.7 2.7---- 0.3------------
1983-07-18 19.7 30.3 11.0 8.9 66.0- 3.3 3.0---- 26.2------------
1983-07-17 18.3 24.7 10.0 8.0 58.5- 0.0 2.7---- 0.0------------
1983-07-16 20.3 26.5 15.0 10.9 66.5- 6.3 3.0---- 5.1------------
1983-07-15 18.2 27.5 9.2 8.0 58.3- 2.7 3.0---- 0.0------------
1983-07-14 18.8 22.6 16.2 15.5 64.8- 2.3 6.3---- 0.0------------
1983-07-13 21.8 27.8 13.6 10.6 70.0- 3.3 3.0---- 0.0------------
1983-07-12 21.9 27.7 16.0 15.0 53.3- 2.7 4.0---- 0.0------------
1983-07-11 21.1 27.3 14.4 11.9 65.5- 4.7 4.0---- 0.0------------
1983-07-10 21.3 28.0 13.8 9.4 61.0- 0.7 5.7---- 0.0------------
1983-07-09 19.3 26.1 12.0 6.3 65.0- 1.7 3.3---- 0.0------------
1983-07-08 17.8 24.3 11.1 6.6 66.8- 0.7 2.7---- 0.0------------
1983-07-07 17.9 24.1 8.3 5.6 61.8- 0.0 3.7---- 0.0------------
1983-07-06 19.4 25.3 13.0 6.6 56.0- 0.7 2.3---- 0.0------------
1983-07-05 17.0 24.3 9.5 6.0 67.0- 1.3 2.7---- 0.0------------
1983-07-04 17.8 23.3 13.4 10.1 66.0- 3.7 2.0---- 0.0------------
1983-07-03 18.0 23.5 7.5 4.7 63.8- 3.3 1.0---- 0.0------------
1983-07-02 16.4 20.8 11.4 10.7 66.3- 2.3 2.7---- 0.0------------
1983-07-01 19.1 25.8 12.4 10.1 65.0- 2.0 2.0---- 0.0------------
1983-06-30 18.7 23.8 11.6 9.5 52.8- 2.0 3.3---- 0.0------------
1983-06-29 13.5 18.8 7.5 5.4 61.3- 3.7 2.7---- 0.0------------
1983-06-28 15.0 18.5 12.5 12.1 69.0- 4.7 1.7---- 0.0------------
1983-06-27 16.8 22.7 11.0 7.1 79.5- 6.3 1.0---- 10.1------------
1983-06-26 16.6 23.7 7.4 3.8 64.8- 4.7 2.0---- 4.3------------
1983-06-25 18.7 24.5 8.6 5.2 59.0- 5.0 2.3---- 4.2------------
1983-06-24 19.4 27.3 5.2 1.7 47.0- 0.0 2.0---- 0.0------------
1983-06-23 15.3 22.7 5.0 -1.3 48.5- 0.0 1.3---- 0.0------------
1983-06-22 12.5 17.4 3.8 -1.5 51.8- 0.0 2.7---- 0.0------------
1983-06-21 14.6 20.9 9.5 6.1 62.0- 1.7 7.7---- 0.0------------
1983-06-20 16.6 22.7 7.8 3.7 61.3- 0.7 5.7---- 0.0------------
1983-06-19 15.6 19.8 11.2 11.6 70.3- 0.3 6.0---- 0.0------------
1983-06-18 14.4 19.6 10.0 5.2 82.0- 6.7 3.0---- 0.0------------
1983-06-17 13.4 18.2 7.5 5.2 72.5- 3.7 3.0---- 0.0------------
1983-06-16 13.7 17.7 10.0 8.5 72.5- 7.0 3.0---- 0.0------------
432.3 ms

 

Źródłem pochodzenia danych jest Instytut Meteorologii i Gospodarki Wodnej – Państwowy Instytut Badawczy. Dane Instytutu Meteorologii i Gospodarki Wodnej – Państwowego Instytutu Badawczego zostały przetworzone.

Dane źródłowe można odnaleźć na stronie https://dane.imgw.pl